DATE METEO

AZI
Time Temp. Dewp. Hum. Wind dir Wind speed Wind gust Bar. 1h Prec. 24h Prec.
00:18 7.9 6.8 93 0 0 1010.2 0.4040 0.2000
00:28 8 6.9 93 0 0 1010.1 0.4040 0.3000
00:38 8 6.9 93 0 0 1010.1 0.5050 0.5000
00:58 8.1 7.2 94 0 0 1009.8 0.8080 0.8000
01:08 8.1 7.2 94 0 0 1009.7 0.7070 0.8000
01:18 8.2 7.3 94 0 0 1009.6 0.6060 0.8000
01:29 8.2 7.3 94 0 0 1009.5 0.4040 0.8000
01:39 8.3 7.4 94 0 0 1009.4 0.1010 0.8000
01:48 8.3 7.4 94 0 0 1009.3 0.0000 0.8000
01:58 8.3 7.4 94 0 0 1009.3 0.1010 0.9000
02:16 8.3 7.4 94 0 0 1009.1 0.3030 1.1000
02:26 8.4 7.5 94 0 0 1009 0.3030 1.1000
02:41 8.4 7.5 94 0 0 1008.9 0.3030 1.1000
02:51 8.4 7.5 94 0 0 1008.9 0.3030 1.1000
03:01 8.5 7.6 94 0 0 1008.8 0.2020 1.1000
03:11 8.5 7.6 94 0 0 1008.7 0.0000 1.1000
03:21 8.5 7.6 94 0 0 1008.7 0.0000 1.1000
03:31 8.6 7.7 94 0 0 1008.7 0.0000 1.1000
03:41 8.6 7.7 94 0 0 1008.5 0.0000 1.1000
03:51 8.7 7.8 94 0 0 1008.4 0.0000 1.1000
04:07 8.7 7.8 94 0 0 1008.3 0.0000 1.1000
04:17 8.7 7.8 94 0 0 1008.2 0.1010 1.2000
04:31 8.7 7.8 94 0 0 1008.2 0.1010 1.2000
04:42 8.7 7.8 94 0 0 1008.2 0.1010 1.2000
04:57 8.7 7.8 94 0 0 1008.1 0.2020 1.3000
05:07 8.7 7.8 94 0 0 1008.1 0.1010 1.3000
05:22 8.8 7.9 94 0 0 1007.9 0.1010 1.3000
05:37 8.8 7.9 94 0 0 1008 0.1010 1.3000
05:47 8.8 7.9 94 0 0 1007.9 0.1010 1.3000
05:58 8.8 7.9 94 0 0 1007.9 0.0000 1.3000
06:08 8.8 7.9 94 0 0 1007.8 0.0000 1.3000
06:17 8.8 7.9 94 0 0 1007.6 0.0000 1.3000
06:28 8.8 7.9 94 0 0 1007.6 0.0000 1.3000
06:38 8.7 7.8 94 0 0 1007.6 0.0000 1.3000
06:48 8.6 7.7 94 0 0 1007.6 0.0000 1.3000
06:58 8.5 7.4 93 0 0 1007.6 0.0000 1.3000
07:08 8.3 7.2 93 0 0 1007.5 0.0000 1.3000
07:23 8.3 7.4 94 0 0 1007.5 0.0000 1.3000
07:44 8.2 7.3 94 0 0 1007.4 0.0000 1.3000
07:53 8.1 7.2 94 0 0 1007.4 0.0000 1.3000
08:03 8 7.1 94 0 0 1007.3 0.0000 1.3000
08:14 7.9 7 94 0 0 1007.3 0.0000 1.3000
08:24 7.9 7 94 0 0 1007.3 0.0000 1.3000
08:34 7.9 7 94 0 0 1007.2 0.0000 1.3000
08:55 8 7.1 94 0 0 1007 0.0000 1.3000
09:04 8 7.1 94 0 0 1006.9 0.0000 1.3000
09:19 8 7.1 94 0 0 1006.9 0.0000 1.3000
09:40 8.2 7.3 94 0 0 1006.8 0.0000 1.3000
09:50 8.3 7.4 94 0 0 1006.8 0.0000 1.3000
09:59 8.4 7.5 94 0 0 1006.8 0.0000 1.3000
10:10 8.6 7.7 94 0 0 1006.8 0.0000 1.3000
10:35 8.9 8 94 0 0 1006.8 0.0000 1.3000
10:55 9.2 8.1 93 0 0 1006.6 0.0000 1.3000
11:05 9.3 8.2 93 0 0 1006.7 0.0000 1.3000
11:16 9.4 8.3 93 0 0 1006.6 0.0000 1.3000
11:26 9.5 8.4 93 0 0 1006.6 0.0000 1.3000
11:36 9.7 8.5 92 0 0 1006.6 0.0000 1.3000
11:46 9.7 8.5 92 0 0 1006.5 0.0000 1.3000
11:56 9.8 8.4 91 0 0 1006.3 0.0000 1.3000
12:06 9.9 8.5 91 0 0 1006.2 0.0000 1.3000
12:16 9.9 8.5 91 0 0 1006 0.0000 1.3000
12:32 10 8.4 90 0 0 1005.7 0.0000 1.3000
12:41 10 8.4 90 0 0 1005.6 0.0000 1.3000
12:51 10 8.3 89 0 0 1005.4 0.0000 1.3000
13:02 10 8.3 89 0 0 1005.2 0.0000 1.3000
13:12 10 8.3 89 0 0 1004.9 0.0000 1.3000
13:22 9.9 8 88 0 0 1004.7 0.0000 1.3000
13:31 9.9 8 88 0 0 1004.6 0.0000 1.3000
13:42 9.9 8 88 0 0 1004.4 0.0000 1.3000
13:52 10 8.1 88 0 0 1004.3 0.0000 1.3000
14:02 10 8.1 88 0 0 1004.1 0.0000 1.3000
14:12 10 8.1 88 0 0 1003.9 0.0000 1.3000
14:22 10 8.1 88 0 0 1003.7 0.0000 1.3000
14:32 10 8.1 88 0 0 1003.7 0.0000 1.3000
14:42 10.1 8.2 88 0 0 1003.6 0.0000 1.3000
14:53 10.1 8.2 88 0 0 1003.5 0.0000 1.3000
15:03 10 8.1 88 0 0 1003.3 0.0000 1.3000
15:12 10 8.3 89 0 0 1003.3 0.0000 1.3000
15:23 9.9 8.2 89 0 0 1003.2 0.0000 1.3000
15:33 9.9 8.2 89 0 0 1003 0.0000 1.3000
15:43 9.8 8.1 89 0 0 1002.8 0.0000 1.3000
15:53 9.7 8 89 0 0 1002.7 0.0000 1.3000
16:03 9.7 8.1 90 0 0 1002.6 0.0000 1.3000

STATISTICILE ZILEI

2020-01-27
TEMPERATURA
MEDIA
8.9
MAXIM
10.1
14:42
MINIM
7.9
00:18
PRESIUNEA
MEDIA
1006.9
MAXIM
1010.2
00:18
MINIM
1002.6
16:03
PUNCTUL DE ROUĂ
MEDIA
7.8
MAXIM
8.5
11:36
MINIM
6.8
00:18
UMIDITATEA
MEDIA
92
MAXIM
94
00:58
MINIM
88
13:22
WIND SPEED
MEDIA
0.0
MAXIM
0.0
15:38
WIND GUST
MEDIA
0.0
MAXIM
0.0
15:38
WIND DIRECTION
PREVAILING
%
PRECIPITATION
RAIN HOUR
0.8
RAIN DAY
1.3
TEMPERATURA (°C)
MINIM
7.9
MAXIM
10.1
MEDIA
8.9
PRESIUNEA (hpa)
MINIM
1002.6
MAXIM
1010.2
MEDIA
1006.9
STATIA METEO